createdAt,value
2019-05-03T00:00:33.003Z,0.00
2019-05-03T00:01:32.969Z,0.00
2019-05-03T00:02:33.345Z,0.00
2019-05-03T00:03:32.924Z,0.00
2019-05-03T00:04:32.902Z,0.00
2019-05-03T00:05:32.875Z,0.00
2019-05-03T00:06:33.166Z,0.00
2019-05-03T00:09:32.793Z,0.00
2019-05-03T00:10:33.068Z,0.00
2019-05-03T00:11:32.840Z,0.00
2019-05-03T00:14:32.685Z,0.00
2019-05-03T00:15:33.350Z,0.00
2019-05-03T00:16:32.640Z,0.00
2019-05-03T00:17:32.903Z,0.00
2019-05-03T00:18:32.777Z,0.00
2019-05-03T00:19:32.835Z,0.00
2019-05-03T00:20:32.745Z,0.00
2019-05-03T00:21:32.735Z,0.00
2019-05-03T00:22:32.500Z,0.00
2019-05-03T00:23:32.543Z,0.00
2019-05-03T00:24:32.756Z,0.00
2019-05-03T00:25:32.689Z,0.00
2019-05-03T00:26:32.603Z,0.00
2019-05-03T00:27:32.388Z,0.00
2019-05-03T00:28:32.389Z,0.00
2019-05-03T00:29:32.616Z,0.00
2019-05-03T00:30:32.315Z,0.00
2019-05-03T00:32:32.871Z,0.00
2019-05-03T00:33:32.243Z,0.00
2019-05-03T00:34:32.465Z,0.00
2019-05-03T00:35:32.203Z,0.00
2019-05-03T00:36:32.855Z,0.00
2019-05-03T00:37:32.762Z,0.00
2019-05-03T00:38:32.564Z,0.00
2019-05-03T00:39:32.608Z,0.00
2019-05-03T00:40:32.467Z,0.00
2019-05-03T00:41:32.137Z,0.00
2019-05-03T00:42:32.146Z,0.00
2019-05-03T00:43:32.112Z,0.00
2019-05-03T00:44:31.986Z,0.00
2019-05-03T00:45:31.965Z,0.00
2019-05-03T00:46:32.724Z,0.00
2019-05-03T00:47:32.849Z,0.00
2019-05-03T00:48:32.642Z,0.00
2019-05-03T00:49:32.175Z,0.00
2019-05-03T00:50:32.186Z,0.00
2019-05-03T00:52:31.978Z,0.00
2019-05-03T00:53:32.080Z,0.00
2019-05-03T00:54:31.784Z,0.00
2019-05-03T00:55:32.753Z,0.00
2019-05-03T00:56:32.201Z,0.00
2019-05-03T00:58:31.915Z,0.00
2019-05-03T00:59:32.653Z,0.00
2019-05-03T01:00:32.295Z,0.00
2019-05-03T01:01:32.068Z,0.00
2019-05-03T01:02:31.992Z,0.00
2019-05-03T01:03:32.544Z,0.00
2019-05-03T01:04:31.820Z,0.00
2019-05-03T01:05:33.162Z,0.00
2019-05-03T01:06:31.926Z,0.00
2019-05-03T01:07:31.952Z,0.00
2019-05-03T01:08:32.628Z,0.00
2019-05-03T01:09:31.767Z,0.00
2019-05-03T01:10:33.086Z,0.00
2019-05-03T01:11:32.427Z,0.00
2019-05-03T01:12:32.386Z,0.00
2019-05-03T01:13:32.089Z,0.00
2019-05-03T01:14:31.683Z,0.00
2019-05-03T01:15:31.991Z,0.00
2019-05-03T01:16:31.851Z,0.00
2019-05-03T01:17:31.773Z,0.00
2019-05-03T01:18:32.411Z,0.00
2019-05-03T01:19:32.018Z,0.00
2019-05-03T01:20:32.002Z,0.00
2019-05-03T01:21:31.741Z,0.00
2019-05-03T01:22:32.249Z,0.00
2019-05-03T01:23:32.566Z,0.00
2019-05-03T01:24:32.243Z,0.00
2019-05-03T01:25:35.167Z,0.00
2019-05-03T01:26:31.958Z,0.00
2019-05-03T01:28:32.379Z,0.00
2019-05-03T01:29:32.268Z,0.00
2019-05-03T01:30:32.058Z,0.00
2019-05-03T01:32:32.684Z,0.00
2019-05-03T01:33:32.171Z,0.00
2019-05-03T01:34:32.597Z,0.00
2019-05-03T01:35:32.308Z,0.00
2019-05-03T01:36:32.121Z,0.00
2019-05-03T01:37:31.892Z,0.00
2019-05-03T01:38:31.948Z,0.00
2019-05-03T01:39:31.621Z,0.00
2019-05-03T01:40:32.466Z,0.00
2019-05-03T01:41:32.336Z,0.00
2019-05-03T01:42:32.156Z,0.00
2019-05-03T01:43:31.701Z,0.00
2019-05-03T01:44:32.650Z,0.00
2019-05-03T01:45:31.829Z,0.00
2019-05-03T01:46:31.628Z,0.00
2019-05-03T01:47:32.483Z,0.00
2019-05-03T01:48:32.205Z,0.00
2019-05-03T01:49:32.096Z,0.00
2019-05-03T01:50:32.044Z,0.00
2019-05-03T01:51:32.577Z,0.00
2019-05-03T01:52:32.389Z,0.00
2019-05-03T01:53:32.161Z,0.00
2019-05-03T01:54:32.156Z,0.00
2019-05-03T01:55:42.226Z,0.00
2019-05-03T01:57:32.373Z,0.00
2019-05-03T01:58:31.948Z,0.00
2019-05-03T01:59:32.072Z,0.00
2019-05-03T02:00:31.881Z,0.00
2019-05-03T02:01:31.578Z,0.00
2019-05-03T02:02:30.167Z,0.00
2019-05-03T02:03:32.448Z,0.00
2019-05-03T02:04:32.175Z,0.00
2019-05-03T02:05:32.071Z,0.00
2019-05-03T02:06:31.850Z,0.00
2019-05-03T02:07:31.643Z,0.00
2019-05-03T02:08:30.335Z,0.00
2019-05-03T02:09:32.188Z,0.00
2019-05-03T02:10:32.172Z,0.00
2019-05-03T02:11:29.957Z,0.00
2019-05-03T02:12:32.135Z,0.00
2019-05-03T02:13:32.023Z,0.00
2019-05-03T02:14:31.711Z,0.00
2019-05-03T02:15:29.869Z,0.00
2019-05-03T02:16:29.837Z,0.00
2019-05-03T02:17:31.809Z,0.00
2019-05-03T02:18:31.765Z,0.00
2019-05-03T02:19:30.014Z,0.00
2019-05-03T02:20:29.757Z,0.00
2019-05-03T02:21:29.816Z,0.00
2019-05-03T02:23:31.597Z,0.00
2019-05-03T02:24:29.644Z,0.00
2019-05-03T02:26:31.684Z,0.00
2019-05-03T02:27:29.727Z,0.00
2019-05-03T02:29:29.561Z,0.00
2019-05-03T02:30:32.906Z,0.00
2019-05-03T02:31:32.531Z,0.00
2019-05-03T02:32:33.073Z,0.00
2019-05-03T02:33:29.435Z,0.00
2019-05-03T02:34:32.452Z,0.00
2019-05-03T02:35:29.387Z,0.00
2019-05-03T02:36:29.380Z,0.00
2019-05-03T02:37:29.444Z,0.00
2019-05-03T02:38:29.694Z,0.00
2019-05-03T02:40:29.465Z,0.00
2019-05-03T02:41:29.244Z,0.00
2019-05-03T02:42:29.429Z,0.00
2019-05-03T02:43:29.190Z,0.00
2019-05-03T02:45:29.242Z,0.00
2019-05-03T02:46:29.321Z,0.00
2019-05-03T02:47:29.397Z,0.00
2019-05-03T02:48:29.071Z,0.00
2019-05-03T02:49:29.054Z,0.00
2019-05-03T02:50:29.322Z,0.00
2019-05-03T02:51:29.105Z,0.00
2019-05-03T02:52:28.980Z,0.00
2019-05-03T02:53:29.054Z,0.00
2019-05-03T02:54:29.083Z,0.00
2019-05-03T02:55:28.901Z,0.00
2019-05-03T02:56:29.132Z,0.00
2019-05-03T02:57:28.858Z,0.00
2019-05-03T02:58:28.860Z,0.00
2019-05-03T02:59:28.807Z,0.00
2019-05-03T03:00:29.003Z,0.00
2019-05-03T03:01:28.767Z,0.00
2019-05-03T03:02:28.734Z,0.00
2019-05-03T03:03:29.018Z,0.00
2019-05-03T03:04:28.804Z,0.00
2019-05-03T03:05:28.659Z,0.00
2019-05-03T03:06:28.735Z,0.00
2019-05-03T03:07:28.612Z,4.00
2019-05-03T03:08:28.591Z,4.00
2019-05-03T03:09:28.563Z,0.00
2019-05-03T03:10:28.852Z,0.00
2019-05-03T03:12:28.591Z,4.00
2019-05-03T03:13:28.466Z,4.00
2019-05-03T03:14:28.496Z,4.00
2019-05-03T03:15:28.426Z,4.00
2019-05-03T03:16:28.492Z,8.00
2019-05-03T03:17:28.633Z,8.00
2019-05-03T03:19:28.322Z,12.00
2019-05-03T03:20:28.300Z,12.00
2019-05-03T03:21:28.766Z,12.00
2019-05-03T03:23:28.326Z,16.00
2019-05-03T03:24:28.501Z,20.00
2019-05-03T03:26:37.149Z,24.00
2019-05-03T03:27:28.126Z,28.00
2019-05-03T03:28:28.096Z,36.00
2019-05-03T03:29:28.073Z,36.00
2019-05-03T03:30:29.536Z,40.00
2019-05-03T03:31:29.029Z,48.00
2019-05-03T03:32:29.706Z,56.00
2019-05-03T03:33:28.613Z,64.00
2019-05-03T03:35:29.634Z,76.00
2019-05-03T03:36:43.088Z,88.00
2019-05-03T03:37:27.883Z,92.00
2019-05-03T03:38:28.110Z,104.00
2019-05-03T03:39:27.928Z,116.00
2019-05-03T03:40:27.805Z,128.00
2019-05-03T03:41:27.801Z,140.00
2019-05-03T03:43:27.736Z,168.00
2019-05-03T03:44:27.753Z,180.00
2019-05-03T03:45:28.091Z,196.00
2019-05-03T03:47:27.702Z,232.00
2019-05-03T03:48:27.609Z,244.00
2019-05-03T03:49:27.689Z,264.00
2019-05-03T03:51:27.548Z,300.00
2019-05-03T03:52:27.814Z,320.00
2019-05-03T03:53:27.485Z,344.00
2019-05-03T03:54:27.562Z,364.00
2019-05-03T03:55:27.535Z,388.00
2019-05-03T03:57:27.408Z,428.00
2019-05-03T03:58:27.615Z,456.00
2019-05-03T03:59:27.546Z,476.00
2019-05-03T04:00:27.326Z,500.00
2019-05-03T04:01:27.288Z,524.00
2019-05-03T04:02:27.370Z,548.00
2019-05-03T04:04:27.543Z,596.00
2019-05-03T04:05:27.341Z,620.00
2019-05-03T04:08:27.125Z,692.00
2019-05-03T04:09:27.093Z,716.00
2019-05-03T04:10:27.367Z,744.00
2019-05-03T04:11:27.297Z,768.00
2019-05-03T04:12:27.060Z,792.00
2019-05-03T04:13:26.998Z,816.00
2019-05-03T04:14:26.973Z,840.00
2019-05-03T04:15:27.050Z,864.00
2019-05-03T04:16:27.175Z,892.00
2019-05-03T04:17:26.901Z,916.00
2019-05-03T04:18:26.897Z,940.00
2019-05-03T04:19:26.949Z,960.00
2019-05-03T04:20:26.829Z,984.00
2019-05-03T04:21:26.800Z,1004.00
2019-05-03T04:22:26.880Z,1032.00
2019-05-03T04:23:27.077Z,1052.00
2019-05-03T04:24:26.730Z,1076.00
2019-05-03T04:25:26.720Z,1096.00
2019-05-03T04:26:29.828Z,1120.00
2019-05-03T04:27:27.669Z,1144.00
2019-05-03T04:28:26.782Z,1164.00
2019-05-03T04:29:26.618Z,1184.00
2019-05-03T04:30:26.834Z,1204.00
2019-05-03T04:31:26.657Z,1220.00
2019-05-03T04:32:29.046Z,1240.00
2019-05-03T04:33:27.165Z,1252.00
2019-05-03T04:36:26.504Z,1312.00
2019-05-03T04:37:26.884Z,1332.00
2019-05-03T04:39:26.355Z,1364.00
2019-05-03T04:40:26.515Z,1380.00
2019-05-03T04:41:27.147Z,1396.00
2019-05-03T04:42:26.584Z,1412.00
2019-05-03T04:43:26.747Z,1428.00
2019-05-03T04:44:26.539Z,1440.00
2019-05-03T04:45:26.524Z,1456.00
2019-05-03T04:46:26.529Z,1472.00
2019-05-03T04:47:26.706Z,1496.00
2019-05-03T04:48:26.144Z,1520.00
2019-05-03T04:49:26.442Z,1536.00
2019-05-03T04:50:26.210Z,1548.00
2019-05-03T04:52:26.492Z,1572.00
2019-05-03T04:53:26.375Z,1580.00
2019-05-03T04:54:26.025Z,1596.00
2019-05-03T04:56:26.231Z,1636.00
2019-05-03T04:57:38.088Z,1656.00
2019-05-03T04:58:25.964Z,1672.00
2019-05-03T04:59:26.120Z,1692.00
2019-05-03T05:01:26.199Z,1720.00
2019-05-03T05:02:26.690Z,1732.00
2019-05-03T05:03:26.576Z,1748.00
2019-05-03T05:04:25.855Z,1768.00
2019-05-03T05:05:26.302Z,1796.00
2019-05-03T05:06:26.138Z,1836.00
2019-05-03T05:07:26.299Z,1900.00
2019-05-03T05:08:25.671Z,2012.00
2019-05-03T05:09:26.042Z,2148.00
2019-05-03T05:10:26.262Z,2340.00
2019-05-03T05:11:26.272Z,2516.00
2019-05-03T05:12:25.859Z,2584.00
2019-05-03T05:13:25.532Z,2664.00
2019-05-03T05:14:25.877Z,2824.00
2019-05-03T05:15:26.333Z,2888.00
2019-05-03T05:16:25.535Z,3000.00
2019-05-03T05:17:26.347Z,3640.00
2019-05-03T05:18:26.406Z,4124.00
2019-05-03T05:19:25.513Z,4008.00
2019-05-03T05:20:25.390Z,4108.00
2019-05-03T05:21:25.469Z,4716.00
2019-05-03T05:22:25.443Z,5260.00
2019-05-03T05:23:25.324Z,6048.00
2019-05-03T05:24:25.683Z,6060.00
2019-05-03T05:25:25.265Z,5108.00
2019-05-03T05:27:25.733Z,4400.00
2019-05-03T05:28:25.400Z,3596.00
2019-05-03T05:29:25.405Z,2900.00
2019-05-03T05:30:25.435Z,2424.00
2019-05-03T05:31:25.530Z,2296.00
2019-05-03T05:32:25.083Z,2188.00
2019-05-03T05:33:26.500Z,2164.00
2019-05-03T05:34:25.108Z,2176.00
2019-05-03T05:35:25.018Z,2192.00
2019-05-03T05:36:25.358Z,2200.00
2019-05-03T05:37:25.133Z,2200.00
2019-05-03T05:39:24.935Z,2232.00
2019-05-03T05:40:24.963Z,2240.00
2019-05-03T05:41:24.897Z,2264.00
2019-05-03T05:43:25.510Z,2296.00
2019-05-03T05:45:24.788Z,2316.00
2019-05-03T05:46:24.970Z,2312.00
2019-05-03T05:47:25.432Z,2312.00
2019-05-03T05:48:24.735Z,2312.00
2019-05-03T05:49:25.986Z,2280.00
2019-05-03T05:50:25.384Z,2296.00
2019-05-03T05:51:25.080Z,2388.00
2019-05-03T05:52:24.699Z,2396.00
2019-05-03T05:53:25.395Z,2436.00
2019-05-03T05:54:24.656Z,2432.00
2019-05-03T05:55:25.285Z,2380.00
2019-05-03T05:56:25.130Z,2364.00
2019-05-03T05:57:25.596Z,2436.00
2019-05-03T05:58:25.615Z,2440.00
2019-05-03T05:59:24.861Z,2432.00
2019-05-03T06:00:25.678Z,2436.00
2019-05-03T06:01:25.014Z,2452.00
2019-05-03T06:02:25.398Z,2456.00
2019-05-03T06:04:24.645Z,2480.00
2019-05-03T06:05:25.250Z,2484.00
2019-05-03T06:06:24.478Z,2500.00
2019-05-03T06:08:25.115Z,2568.00
2019-05-03T06:09:25.614Z,2660.00
2019-05-03T06:10:24.933Z,2852.00
2019-05-03T06:11:25.842Z,2748.00
2019-05-03T06:12:25.100Z,2628.00
2019-05-03T06:13:24.174Z,2544.00
2019-05-03T06:14:24.594Z,2552.00
2019-05-03T06:16:24.586Z,2628.00
2019-05-03T06:17:24.601Z,2700.00
2019-05-03T06:18:25.052Z,2780.00
2019-05-03T06:20:24.605Z,2928.00
2019-05-03T06:21:25.065Z,2868.00
2019-05-03T06:22:25.692Z,2936.00
2019-05-03T06:23:24.821Z,3096.00
2019-05-03T06:25:26.583Z,3104.00
2019-05-03T06:26:25.267Z,3152.00
2019-05-03T06:27:24.419Z,3064.00
2019-05-03T06:28:25.213Z,2932.00
2019-05-03T06:29:24.783Z,2860.00
2019-05-03T06:30:24.850Z,2812.00
2019-05-03T06:31:25.254Z,2772.00
2019-05-03T06:33:24.496Z,2764.00
2019-05-03T06:34:25.189Z,2768.00
2019-05-03T06:35:24.394Z,2776.00
2019-05-03T06:37:25.123Z,2800.00
2019-05-03T06:38:24.549Z,2820.00
2019-05-03T06:39:24.947Z,2840.00
2019-05-03T06:40:25.901Z,2868.00
2019-05-03T06:41:25.071Z,2888.00
2019-05-03T06:43:24.448Z,2928.00
2019-05-03T06:44:27.005Z,2940.00
2019-05-03T06:45:25.116Z,2980.00
2019-05-03T06:46:30.103Z,3032.00
2019-05-03T06:47:25.315Z,3100.00
2019-05-03T06:48:30.223Z,3196.00
2019-05-03T06:49:25.394Z,3332.00
2019-05-03T06:50:26.431Z,3480.00
2019-05-03T06:51:24.856Z,3624.00
2019-05-03T06:52:27.581Z,3776.00
2019-05-03T06:53:25.277Z,3976.00
2019-05-03T06:54:28.364Z,4312.00
2019-05-03T06:55:24.749Z,4916.00
2019-05-03T06:56:24.997Z,5640.00
2019-05-03T06:57:25.228Z,6996.00
2019-05-03T06:58:31.260Z,7860.00
2019-05-03T07:00:24.742Z,6008.00
2019-05-03T07:01:25.166Z,7424.00
2019-05-03T07:02:25.150Z,6960.00
2019-05-03T07:03:25.055Z,6376.00
2019-05-03T07:04:24.517Z,6244.00
2019-05-03T07:05:24.992Z,5712.00
2019-05-03T07:06:34.590Z,5224.00
2019-05-03T07:07:26.057Z,4932.00
2019-05-03T07:08:23.055Z,4824.00
2019-05-03T07:09:24.935Z,4964.00
2019-05-03T07:10:24.821Z,5428.00
2019-05-03T07:11:24.757Z,4596.00
2019-05-03T07:13:25.289Z,5072.00
2019-05-03T07:14:24.576Z,5072.00
2019-05-03T07:15:24.982Z,4760.00
2019-05-03T07:16:22.831Z,5060.00
2019-05-03T07:17:24.690Z,6472.00
2019-05-03T07:18:24.678Z,8744.00
2019-05-03T07:19:24.858Z,7420.00
2019-05-03T07:21:24.679Z,5528.00
2019-05-03T07:22:24.423Z,4992.00
2019-05-03T07:23:24.435Z,5716.00
2019-05-03T07:24:24.774Z,7592.00
2019-05-03T07:25:25.551Z,7408.00
2019-05-03T07:26:22.537Z,8964.00
2019-05-03T07:27:24.762Z,10728.00
2019-05-03T07:28:24.815Z,11228.00
2019-05-03T07:29:22.550Z,6660.00
2019-05-03T07:30:24.602Z,6260.00
2019-05-03T07:31:22.459Z,5300.00
2019-05-03T07:32:24.162Z,7632.00
2019-05-03T07:33:22.465Z,6644.00
2019-05-03T07:34:24.765Z,5432.00
2019-05-03T07:35:22.349Z,5704.00
2019-05-03T07:36:25.205Z,5860.00
2019-05-03T07:38:22.292Z,7628.00
2019-05-03T07:39:24.519Z,9632.00
2019-05-03T07:40:22.269Z,11692.00
2019-05-03T07:41:25.080Z,13132.00
2019-05-03T07:42:22.524Z,13736.00
2019-05-03T07:43:24.378Z,13384.00
2019-05-03T07:44:22.385Z,11076.00
2019-05-03T07:45:22.934Z,11360.00
2019-05-03T07:46:22.144Z,10984.00
2019-05-03T07:47:22.117Z,11780.00
2019-05-03T07:49:22.092Z,7448.00
2019-05-03T07:50:22.630Z,6360.00
2019-05-03T07:52:22.213Z,10056.00
2019-05-03T07:53:21.999Z,10656.00
2019-05-03T07:54:21.986Z,12304.00
2019-05-03T07:55:22.107Z,13084.00
2019-05-03T07:56:21.960Z,12272.00
2019-05-03T07:57:22.068Z,13444.00
2019-05-03T07:58:21.916Z,14724.00
2019-05-03T07:59:21.891Z,15864.00
2019-05-03T08:00:21.944Z,15264.00
2019-05-03T08:01:25.018Z,14172.00
2019-05-03T08:02:25.093Z,12852.00
2019-05-03T08:03:24.324Z,13000.00
2019-05-03T08:05:24.575Z,10616.00
2019-05-03T08:07:23.031Z,13320.00
2019-05-03T08:08:21.811Z,14588.00
2019-05-03T08:09:22.174Z,16164.00
2019-05-03T08:10:21.772Z,18720.00
2019-05-03T08:13:22.082Z,19584.00
2019-05-03T08:14:21.910Z,16864.00
2019-05-03T08:15:21.637Z,16172.00
2019-05-03T08:16:21.877Z,16704.00
2019-05-03T08:17:21.699Z,13200.00
2019-05-03T08:18:21.756Z,12448.00
2019-05-03T08:19:24.518Z,13224.00
2019-05-03T08:20:21.591Z,15764.00
2019-05-03T08:21:21.716Z,17408.00
2019-05-03T08:22:21.508Z,18016.00
2019-05-03T08:23:27.473Z,17728.00
2019-05-03T08:24:21.478Z,16288.00
2019-05-03T08:25:21.784Z,11632.00
2019-05-03T08:27:21.530Z,5888.00
2019-05-03T08:28:21.428Z,6452.00
2019-05-03T08:29:21.497Z,7928.00
2019-05-03T08:30:21.363Z,10580.00
2019-05-03T08:31:23.931Z,13800.00
2019-05-03T08:32:21.960Z,15760.00
2019-05-03T08:33:22.309Z,15236.00
2019-05-03T08:34:21.441Z,16016.00
2019-05-03T08:35:21.783Z,16340.00
2019-05-03T08:36:21.280Z,17024.00
2019-05-03T08:37:24.369Z,17248.00
2019-05-03T08:38:21.406Z,17088.00
2019-05-03T08:39:21.281Z,16304.00
2019-05-03T08:40:21.731Z,16516.00
2019-05-03T08:41:21.191Z,17216.00
2019-05-03T08:42:21.400Z,17472.00
2019-05-03T08:43:21.210Z,17056.00
2019-05-03T08:44:21.465Z,18720.00
2019-05-03T08:45:21.166Z,21472.00
2019-05-03T08:46:21.206Z,20928.00
2019-05-03T08:47:21.070Z,16896.00
2019-05-03T08:49:21.227Z,8252.00
2019-05-03T08:50:21.635Z,8268.00
2019-05-03T08:51:21.308Z,8492.00
2019-05-03T08:52:20.993Z,8340.00
2019-05-03T08:53:20.979Z,8532.00
2019-05-03T08:54:20.960Z,8228.00
2019-05-03T08:55:21.031Z,7104.00
2019-05-03T08:56:20.920Z,6140.00
2019-05-03T08:57:20.911Z,5860.00
2019-05-03T08:58:21.198Z,5612.00
2019-05-03T08:59:31.591Z,5696.00
2019-05-03T09:00:20.947Z,5744.00
2019-05-03T09:01:21.732Z,5624.00
2019-05-03T09:02:20.885Z,5376.00
2019-05-03T09:03:20.844Z,4864.00
2019-05-03T09:04:33.073Z,4516.00
2019-05-03T09:05:21.570Z,4228.00
2019-05-03T09:06:20.935Z,3936.00
2019-05-03T09:07:27.165Z,3872.00
2019-05-03T09:08:20.723Z,3844.00
2019-05-03T09:09:21.952Z,3672.00
2019-05-03T09:10:20.768Z,3544.00
2019-05-03T09:11:30.754Z,3516.00
2019-05-03T09:12:20.716Z,3488.00
2019-05-03T09:13:20.628Z,3388.00
2019-05-03T09:14:20.900Z,3176.00
2019-05-03T09:15:21.767Z,2616.00
2019-05-03T09:16:20.611Z,2444.00
2019-05-03T09:18:25.702Z,3668.00
2019-05-03T09:20:20.496Z,4908.00
2019-05-03T09:23:23.224Z,7384.00
2019-05-03T09:24:21.736Z,9636.00
2019-05-03T09:25:20.718Z,11688.00
2019-05-03T09:26:20.341Z,13572.00
2019-05-03T09:27:20.375Z,14964.00
2019-05-03T09:29:20.318Z,15024.00
2019-05-03T09:30:20.274Z,15660.00
2019-05-03T09:32:20.534Z,17888.00
2019-05-03T09:33:20.204Z,19168.00
2019-05-03T09:34:20.192Z,18816.00
2019-05-03T09:35:29.752Z,20864.00
2019-05-03T09:36:20.159Z,23008.00
2019-05-03T09:37:20.374Z,24288.00
2019-05-03T09:38:20.443Z,25632.00
2019-05-03T09:40:20.058Z,23968.00
2019-05-03T09:41:20.036Z,23680.00
2019-05-03T09:42:20.061Z,22272.00
2019-05-03T09:44:20.028Z,21440.00
2019-05-03T09:45:19.966Z,21920.00
2019-05-03T09:46:19.962Z,19520.00
2019-05-03T09:47:19.969Z,19968.00
2019-05-03T09:48:19.929Z,20224.00
2019-05-03T09:49:20.096Z,20736.00
2019-05-03T09:50:20.148Z,21536.00
2019-05-03T09:51:19.919Z,23200.00
2019-05-03T09:52:19.841Z,24928.00
2019-05-03T09:53:19.893Z,27136.00
2019-05-03T09:54:19.808Z,29152.00
2019-05-03T09:55:19.876Z,30080.00
2019-05-03T09:57:19.765Z,27456.00
2019-05-03T09:58:19.724Z,27040.00
2019-05-03T09:59:19.718Z,29216.00
2019-05-03T10:00:19.816Z,28736.00
2019-05-03T10:01:19.697Z,25568.00
2019-05-03T10:02:20.080Z,23840.00
2019-05-03T10:03:19.696Z,23264.00
2019-05-03T10:05:19.676Z,11852.00
2019-05-03T10:06:19.824Z,10632.00
2019-05-03T10:08:19.628Z,11488.00
2019-05-03T10:09:19.870Z,9136.00
2019-05-03T10:10:19.553Z,8480.00
2019-05-03T10:11:19.627Z,8240.00
2019-05-03T10:12:19.513Z,8920.00
2019-05-03T10:14:19.541Z,13120.00
2019-05-03T10:15:19.471Z,15664.00
2019-05-03T10:16:19.529Z,18432.00
2019-05-03T10:18:19.435Z,26208.00
2019-05-03T10:19:19.691Z,29824.00
2019-05-03T10:20:19.417Z,29472.00
2019-05-03T10:21:19.816Z,27680.00
2019-05-03T10:22:19.677Z,21216.00
2019-05-03T10:23:19.361Z,20960.00
2019-05-03T10:24:20.023Z,28032.00
2019-05-03T10:25:19.423Z,26240.00
2019-05-03T10:26:19.480Z,26240.00
2019-05-03T10:27:19.253Z,27424.00
2019-05-03T10:28:19.312Z,26112.00
2019-05-03T10:29:19.760Z,26720.00
2019-05-03T10:30:19.218Z,35840.00
2019-05-03T10:31:19.224Z,49888.00
2019-05-03T10:32:19.179Z,77056.00
2019-05-03T10:33:19.178Z,75040.00
2019-05-03T10:34:19.171Z,78592.00
2019-05-03T10:36:20.063Z,67552.00
2019-05-03T10:37:19.110Z,64768.00
2019-05-03T10:38:19.093Z,41760.00
2019-05-03T10:39:19.260Z,56704.00
2019-05-03T10:41:19.304Z,48000.00
2019-05-03T10:42:19.049Z,58496.00
2019-05-03T10:43:19.720Z,51904.00
2019-05-03T10:44:19.017Z,64672.00
2019-05-03T10:45:19.004Z,67904.00
2019-05-03T10:46:20.072Z,55200.00
2019-05-03T10:47:19.004Z,52864.00
2019-05-03T10:48:19.150Z,54784.00
2019-05-03T10:49:19.094Z,48448.00
2019-05-03T10:51:19.372Z,27616.00
2019-05-03T10:52:19.073Z,26784.00
2019-05-03T10:53:18.931Z,25088.00
2019-05-03T10:54:20.438Z,21952.00
2019-05-03T10:55:18.923Z,24576.00
2019-05-03T10:56:24.578Z,22592.00
2019-05-03T10:57:19.242Z,21472.00
2019-05-03T10:58:19.014Z,22880.00
2019-05-03T11:00:42.581Z,20160.00
2019-05-03T11:01:18.848Z,21248.00
2019-05-03T11:02:19.460Z,22176.00
2019-05-03T11:04:19.194Z,20608.00
2019-05-03T11:06:18.868Z,20416.00
2019-05-03T11:07:19.027Z,18336.00
2019-05-03T11:08:18.709Z,17344.00
2019-05-03T11:09:19.042Z,16248.00
2019-05-03T11:10:18.695Z,15976.00
2019-05-03T11:11:18.711Z,16736.00
2019-05-03T11:12:18.637Z,17696.00
2019-05-03T11:13:18.629Z,18176.00
2019-05-03T11:15:18.922Z,19936.00
2019-05-03T11:16:18.577Z,21088.00
2019-05-03T11:17:18.994Z,23968.00
2019-05-03T11:18:18.553Z,27232.00
2019-05-03T11:19:18.537Z,30176.00
2019-05-03T11:20:28.369Z,36096.00
2019-05-03T11:21:28.201Z,37056.00
2019-05-03T11:22:18.472Z,35264.00
2019-05-03T11:23:18.509Z,39488.00
2019-05-03T11:24:18.794Z,57792.00
2019-05-03T11:29:19.009Z,57344.00
2019-05-03T11:32:19.344Z,67680.00
2019-05-03T11:33:18.307Z,48320.00
2019-05-03T11:34:22.228Z,51520.00
2019-05-03T11:39:18.588Z,44576.00
2019-05-03T11:40:18.826Z,36096.00
2019-05-03T11:41:29.534Z,36320.00
2019-05-03T11:42:18.711Z,43552.00
2019-05-03T11:43:18.265Z,42560.00
2019-05-03T11:44:18.127Z,35232.00
2019-05-03T11:45:18.509Z,28256.00
2019-05-03T11:46:18.650Z,25568.00
2019-05-03T11:47:18.289Z,24864.00
2019-05-03T11:48:18.666Z,21952.00
2019-05-03T11:49:18.661Z,17152.00
2019-05-03T11:50:18.514Z,15280.00
2019-05-03T11:51:18.050Z,16864.00
2019-05-03T11:52:18.109Z,17696.00
2019-05-03T11:53:18.099Z,16068.00
2019-05-03T11:54:18.047Z,15036.00
2019-05-03T11:55:18.386Z,14312.00
2019-05-03T11:56:18.375Z,12884.00
2019-05-03T11:57:18.013Z,11828.00
2019-05-03T11:58:17.967Z,13008.00
2019-05-03T11:59:17.980Z,15176.00
2019-05-03T12:00:17.892Z,16800.00
2019-05-03T12:01:20.120Z,17024.00
2019-05-03T12:02:18.204Z,17856.00
2019-05-03T12:03:17.915Z,20000.00
2019-05-03T12:04:17.844Z,22176.00
2019-05-03T12:05:17.966Z,26656.00
2019-05-03T12:06:17.778Z,29088.00
2019-05-03T12:07:18.456Z,29792.00
2019-05-03T12:08:17.793Z,33536.00
2019-05-03T12:09:18.062Z,34208.00
2019-05-03T12:10:32.273Z,34304.00
2019-05-03T12:12:17.792Z,36128.00
2019-05-03T12:13:17.710Z,31968.00
2019-05-03T12:15:17.947Z,31040.00
2019-05-03T12:16:26.137Z,33312.00
2019-05-03T12:17:24.179Z,38368.00
2019-05-03T12:18:18.080Z,53248.00
2019-05-03T12:19:21.335Z,54016.00
2019-05-03T12:20:19.308Z,48192.00
2019-05-03T12:21:19.180Z,38944.00
2019-05-03T12:22:18.520Z,41952.00
2019-05-03T12:25:18.206Z,55072.00
2019-05-03T12:26:18.179Z,20576.00
2019-05-03T12:27:17.516Z,18848.00
2019-05-03T12:28:17.978Z,32416.00
2019-05-03T12:29:17.795Z,39360.00
2019-05-03T12:33:17.659Z,5512.00
2019-05-03T12:34:17.971Z,5512.00
2019-05-03T12:35:17.890Z,5692.00
2019-05-03T12:36:17.488Z,5824.00
2019-05-03T12:37:17.906Z,6140.00
2019-05-03T12:38:17.736Z,6492.00
2019-05-03T12:39:26.353Z,7844.00
2019-05-03T12:40:17.879Z,10284.00
2019-05-03T12:42:18.923Z,12564.00
2019-05-03T12:43:17.329Z,12536.00
2019-05-03T12:44:17.423Z,13100.00
2019-05-03T12:45:17.352Z,14224.00
2019-05-03T12:46:17.298Z,15316.00
2019-05-03T12:47:17.485Z,17216.00
2019-05-03T12:48:17.578Z,21408.00
2019-05-03T12:49:17.151Z,25664.00
2019-05-03T12:50:17.124Z,35104.00
2019-05-03T12:51:17.511Z,48160.00
2019-05-03T12:52:17.881Z,30432.00
2019-05-03T12:53:17.619Z,28608.00
2019-05-03T12:54:17.269Z,25408.00
2019-05-03T12:56:23.188Z,23616.00
2019-05-03T12:57:17.079Z,22912.00
2019-05-03T12:58:17.124Z,20960.00
2019-05-03T12:59:17.625Z,19008.00
2019-05-03T13:00:16.965Z,17248.00
2019-05-03T13:01:17.202Z,15628.00
2019-05-03T13:02:16.940Z,14008.00
2019-05-03T13:03:17.033Z,12660.00
2019-05-03T13:04:16.920Z,12400.00
2019-05-03T13:05:17.032Z,13128.00
2019-05-03T13:06:17.326Z,13948.00
2019-05-03T13:08:16.982Z,13572.00
2019-05-03T13:09:16.837Z,11584.00
2019-05-03T13:10:22.820Z,9352.00
2019-05-03T13:11:16.971Z,6608.00
2019-05-03T13:12:16.784Z,4260.00
2019-05-03T13:13:17.289Z,3688.00
2019-05-03T13:14:17.238Z,4708.00
2019-05-03T13:15:16.733Z,5412.00
2019-05-03T13:16:16.756Z,5032.00
2019-05-03T13:17:16.684Z,4472.00
2019-05-03T13:18:16.963Z,4180.00
2019-05-03T13:19:16.781Z,3860.00
2019-05-03T13:21:16.694Z,3696.00
2019-05-03T13:23:17.949Z,3552.00
2019-05-03T13:24:23.305Z,3532.00
2019-05-03T13:26:16.657Z,3284.00
2019-05-03T13:27:29.957Z,3192.00
2019-05-03T13:29:17.083Z,3164.00
2019-05-03T13:30:16.617Z,3096.00
2019-05-03T13:31:16.453Z,3172.00
2019-05-03T13:32:16.404Z,3260.00
2019-05-03T13:33:16.639Z,3384.00
2019-05-03T13:34:16.369Z,3636.00
2019-05-03T13:36:16.354Z,4532.00
2019-05-03T13:37:16.328Z,5128.00
2019-05-03T13:38:16.290Z,5508.00
2019-05-03T13:39:16.304Z,5688.00
2019-05-03T13:41:16.430Z,5976.00
2019-05-03T13:42:16.383Z,6284.00
2019-05-03T13:43:16.193Z,6452.00
2019-05-03T13:45:16.417Z,6596.00
2019-05-03T13:46:16.489Z,6580.00
2019-05-03T13:47:16.264Z,6424.00
2019-05-03T13:48:20.914Z,6740.00
2019-05-03T13:49:16.273Z,7768.00
2019-05-03T13:50:16.070Z,9656.00
2019-05-03T13:52:16.411Z,12916.00
2019-05-03T13:54:15.980Z,17760.00
2019-05-03T13:55:16.004Z,22656.00
2019-05-03T13:56:15.924Z,23296.00
2019-05-03T13:57:16.245Z,25792.00
2019-05-03T13:59:19.855Z,33792.00
2019-05-03T14:01:15.963Z,30272.00
2019-05-03T14:02:19.005Z,31424.00
2019-05-03T14:03:15.786Z,35584.00
2019-05-03T14:04:16.075Z,20480.00